createdAt,value
2022-10-28T00:00:15.348Z,98855.00
2022-10-28T00:05:51.193Z,98854.00
2022-10-28T00:11:21.605Z,98855.00
2022-10-28T00:16:44.608Z,98858.00
2022-10-28T00:22:09.288Z,98848.00
2022-10-28T00:27:27.312Z,98852.00
2022-10-28T00:32:53.314Z,98844.00
2022-10-28T00:38:03.495Z,98847.00
2022-10-28T00:43:27.828Z,98837.00
2022-10-28T00:48:43.068Z,98841.00
2022-10-28T00:54:04.598Z,98843.00
2022-10-28T00:59:18.802Z,98849.00
2022-10-28T01:04:22.486Z,98835.00
2022-10-28T01:09:33.482Z,98825.00
2022-10-28T01:15:06.731Z,98820.00
2022-10-28T01:20:27.489Z,98825.00
2022-10-28T01:26:19.690Z,98818.00
2022-10-28T01:32:17.387Z,98821.00
2022-10-28T01:37:57.918Z,98817.00
2022-10-28T01:43:25.079Z,98818.00
2022-10-28T01:48:51.457Z,98783.00
2022-10-28T01:53:58.382Z,98792.00
2022-10-28T01:59:10.349Z,98808.00
2022-10-28T02:04:35.128Z,98795.00
2022-10-28T02:10:10.121Z,98793.00
2022-10-28T02:15:30.770Z,98804.00
2022-10-28T02:21:22.247Z,98801.00
2022-10-28T02:27:12.496Z,98793.00
2022-10-28T02:32:39.642Z,98794.00
2022-10-28T02:37:59.307Z,98786.00
2022-10-28T02:43:19.093Z,98787.00
2022-10-28T02:48:57.140Z,98787.00
2022-10-28T02:54:17.663Z,98779.00
2022-10-28T02:59:20.612Z,98770.00
2022-10-28T03:04:34.636Z,98783.00
2022-10-28T03:09:37.675Z,98793.00
2022-10-28T03:14:40.493Z,98785.00
2022-10-28T03:19:43.212Z,98781.00
2022-10-28T03:24:45.979Z,98782.00
2022-10-28T03:29:48.733Z,98779.00
2022-10-28T03:34:51.457Z,98772.00
2022-10-28T03:39:54.264Z,98772.00
2022-10-28T03:44:57.030Z,98768.00
2022-10-28T03:49:59.764Z,98780.00
2022-10-28T03:55:02.544Z,98778.00
2022-10-28T04:00:06.250Z,98778.00
2022-10-28T04:05:38.688Z,98772.00
2022-10-28T04:10:52.816Z,98775.00
2022-10-28T04:16:18.333Z,98752.00
2022-10-28T04:21:27.129Z,98753.00
2022-10-28T04:26:59.796Z,98751.00
2022-10-28T04:32:18.944Z,98755.00
2022-10-28T04:38:00.447Z,98757.00
2022-10-28T04:43:20.333Z,98757.00
2022-10-28T04:48:34.229Z,98751.00
2022-10-28T04:53:45.847Z,98752.00
2022-10-28T04:59:06.446Z,98742.00
2022-10-28T05:04:31.811Z,98745.00
2022-10-28T05:09:36.596Z,98743.00
2022-10-28T05:14:39.362Z,98744.00
2022-10-28T05:19:45.320Z,98744.00
2022-10-28T05:24:48.071Z,98747.00
2022-10-28T05:29:50.812Z,98752.00
2022-10-28T05:34:53.543Z,98743.00
2022-10-28T05:39:56.332Z,98748.00
2022-10-28T05:44:59.093Z,98744.00
2022-10-28T05:50:01.978Z,98743.00
2022-10-28T05:55:05.611Z,98747.00
2022-10-28T06:00:09.083Z,98749.00
2022-10-28T06:05:18.819Z,98759.00
2022-10-28T06:10:22.716Z,98758.00
2022-10-28T06:15:24.056Z,98757.00
2022-10-28T06:20:26.862Z,98754.00
2022-10-28T06:25:29.652Z,98755.00
2022-10-28T06:30:32.384Z,98766.00
2022-10-28T06:35:35.133Z,98778.00
2022-10-28T06:40:37.929Z,98787.00
2022-10-28T06:45:40.752Z,98791.00
2022-10-28T06:50:45.015Z,98795.00
2022-10-28T06:56:13.034Z,98796.00
2022-10-28T07:01:24.414Z,98800.00
2022-10-28T07:06:36.499Z,98806.00
2022-10-28T07:11:43.979Z,98809.00
2022-10-28T07:23:00.774Z,98813.00
2022-10-28T07:28:11.530Z,98818.00
2022-10-28T07:33:25.595Z,98821.00
2022-10-28T07:38:44.794Z,98828.00
2022-10-28T07:43:59.407Z,98831.00
2022-10-28T07:49:10.840Z,98825.00
2022-10-28T07:54:20.070Z,98820.00
2022-10-28T07:59:28.872Z,98826.00
2022-10-28T08:04:46.495Z,98829.00
2022-10-28T08:09:53.223Z,98824.00
2022-10-28T08:14:56.408Z,98814.00
2022-10-28T08:19:59.370Z,98817.00
2022-10-28T08:25:02.203Z,98810.00
2022-10-28T08:30:05.573Z,98815.00
2022-10-28T08:35:17.208Z,98814.00
2022-10-28T08:40:32.141Z,98806.00
2022-10-28T08:45:55.783Z,98801.00
2022-10-28T08:51:47.268Z,98802.00
2022-10-28T08:57:02.679Z,98797.00
2022-10-28T09:02:22.594Z,98782.00
2022-10-28T09:07:31.744Z,98787.00
2022-10-28T09:13:18.604Z,98772.00
2022-10-28T09:19:05.403Z,98765.00
2022-10-28T09:24:24.151Z,98752.00
2022-10-28T09:29:44.300Z,98766.00
2022-10-28T09:35:14.878Z,98765.00
2022-10-28T09:40:27.715Z,98759.00
2022-10-28T09:45:33.861Z,98761.00
2022-10-28T09:50:36.717Z,98759.00
2022-10-28T09:55:39.515Z,98754.00
2022-10-28T10:00:42.421Z,98746.00
2022-10-28T10:06:25.086Z,98739.00
2022-10-28T10:11:56.780Z,98722.00
2022-10-28T10:17:29.650Z,98710.00
2022-10-28T10:22:39.557Z,98708.00
2022-10-28T10:28:27.986Z,98726.00
2022-10-28T10:33:44.301Z,98718.00
2022-10-28T10:39:06.241Z,98708.00
2022-10-28T10:44:22.794Z,98705.00
2022-10-28T10:49:26.329Z,98693.00
2022-10-28T10:54:32.105Z,98684.00
2022-10-28T10:59:37.813Z,98683.00
2022-10-28T11:05:08.451Z,98674.00
2022-10-28T11:10:27.180Z,98682.00
2022-10-28T11:15:32.042Z,98684.00
2022-10-28T11:21:18.198Z,98680.00
2022-10-28T11:26:27.972Z,98674.00
2022-10-28T11:31:44.964Z,98674.00
2022-10-28T11:37:16.669Z,98663.00
2022-10-28T11:48:28.171Z,98658.00
2022-10-28T11:53:55.292Z,98659.00
2022-10-28T11:59:15.832Z,98659.00
2022-10-28T12:05:04.622Z,98656.00
2022-10-28T12:10:31.280Z,98656.00
2022-10-28T12:16:05.858Z,98655.00
2022-10-28T12:21:47.152Z,98651.00
2022-10-28T12:27:22.465Z,98653.00
2022-10-28T12:32:44.657Z,98648.00
2022-10-28T12:38:23.946Z,98655.00
2022-10-28T12:43:57.276Z,98656.00
2022-10-28T12:49:21.385Z,98646.00
2022-10-28T12:54:52.738Z,98650.00
2022-10-28T13:00:17.365Z,98649.00
2022-10-28T13:05:51.782Z,98641.00
2022-10-28T13:11:34.564Z,98638.00
2022-10-28T13:17:06.821Z,98644.00
2022-10-28T13:22:23.935Z,98649.00
2022-10-28T13:27:44.189Z,98642.00
2022-10-28T13:33:28.960Z,98646.00
2022-10-28T13:38:55.981Z,98643.00
2022-10-28T13:44:19.591Z,98640.00
2022-10-28T13:49:29.945Z,98641.00
2022-10-28T13:54:39.913Z,98643.00
2022-10-28T13:59:53.809Z,98646.00
2022-10-28T14:05:18.468Z,98643.00
2022-10-28T14:10:32.477Z,98647.00
2022-10-28T14:15:40.687Z,98652.00
2022-10-28T14:20:46.296Z,98649.00
2022-10-28T14:26:22.234Z,98655.00
2022-10-28T14:31:51.040Z,98651.00
2022-10-28T14:37:49.516Z,98642.00
2022-10-28T14:43:29.399Z,98636.00
2022-10-28T14:49:01.048Z,98638.00
2022-10-28T14:54:22.047Z,98642.00
2022-10-28T14:59:29.054Z,98642.00
2022-10-28T15:04:56.463Z,98630.00
2022-10-28T15:10:19.485Z,98638.00
2022-10-28T15:15:25.357Z,98627.00
2022-10-28T15:20:31.803Z,98631.00
2022-10-28T15:25:34.596Z,98627.00
2022-10-28T15:30:46.475Z,98624.00
2022-10-28T15:36:22.375Z,98625.00
2022-10-28T15:41:51.820Z,98620.00
2022-10-28T15:47:30.403Z,98620.00
2022-10-28T15:53:28.824Z,98621.00
2022-10-28T15:58:56.464Z,98624.00
2022-10-28T16:04:32.690Z,98625.00
2022-10-28T16:10:07.183Z,98624.00
2022-10-28T16:15:14.759Z,98626.00
2022-10-28T16:20:26.690Z,98635.00
2022-10-28T16:25:29.509Z,98634.00
2022-10-28T16:30:32.295Z,98634.00
2022-10-28T16:35:35.185Z,98646.00
2022-10-28T16:40:50.911Z,98647.00
2022-10-28T16:52:10.606Z,98645.00
2022-10-28T16:57:28.617Z,98654.00
2022-10-28T17:03:04.131Z,98656.00
2022-10-28T17:08:48.881Z,98651.00
2022-10-28T17:14:00.473Z,98656.00
2022-10-28T17:19:09.086Z,98658.00
2022-10-28T17:24:25.586Z,98663.00
2022-10-28T17:29:29.470Z,98665.00
2022-10-28T17:34:32.277Z,98660.00
2022-10-28T17:39:35.126Z,98656.00
2022-10-28T17:44:38.016Z,98656.00
2022-10-28T17:49:40.802Z,98647.00
2022-10-28T17:54:43.669Z,98647.00
2022-10-28T17:59:46.886Z,98641.00
2022-10-28T18:05:08.306Z,98641.00
2022-10-28T18:10:12.487Z,98643.00
2022-10-28T18:15:15.366Z,98640.00
2022-10-28T18:20:18.083Z,98637.00
2022-10-28T18:25:20.835Z,98634.00
2022-10-28T18:30:24.287Z,98627.00
2022-10-28T18:35:28.398Z,98614.00
2022-10-28T18:40:31.121Z,98622.00
2022-10-28T18:45:33.878Z,98627.00
2022-10-28T18:50:36.764Z,98616.00
2022-10-28T18:55:39.586Z,98618.00
2022-10-28T19:00:42.458Z,98610.00
2022-10-28T19:06:03.689Z,98618.00
2022-10-28T19:11:26.215Z,98621.00
2022-10-28T19:16:40.290Z,98611.00
2022-10-28T19:21:52.837Z,98613.00
2022-10-28T19:27:13.278Z,98612.00
2022-10-28T19:32:39.675Z,98626.00
2022-10-28T19:38:02.888Z,98626.00
2022-10-28T19:43:15.877Z,98630.00
2022-10-28T19:48:29.622Z,98634.00
2022-10-28T19:53:59.027Z,98629.00
2022-10-28T19:59:13.654Z,98644.00
2022-10-28T20:04:51.266Z,98643.00
2022-10-28T20:09:54.675Z,98640.00
2022-10-28T20:14:57.434Z,98642.00
2022-10-28T20:20:00.183Z,98647.00
2022-10-28T20:25:08.595Z,98655.00
2022-10-28T20:30:12.121Z,98668.00
2022-10-28T20:35:14.959Z,98671.00
2022-10-28T20:40:17.742Z,98669.00
2022-10-28T20:45:20.549Z,98680.00
2022-10-28T20:50:23.323Z,98686.00
2022-10-28T20:55:26.083Z,98686.00
2022-10-28T21:00:28.910Z,98688.00
2022-10-28T21:05:54.130Z,98687.00
2022-10-28T21:11:21.327Z,98698.00
2022-10-28T21:22:09.644Z,98692.00
2022-10-28T21:27:44.193Z,98699.00
2022-10-28T21:33:06.343Z,98719.00
2022-10-28T21:38:19.257Z,98708.00
2022-10-28T21:43:47.828Z,98708.00
2022-10-28T21:49:05.546Z,98707.00
2022-10-28T21:54:17.946Z,98709.00
2022-10-28T21:59:30.986Z,98714.00
2022-10-28T22:04:37.846Z,98721.00
2022-10-28T22:09:51.654Z,98723.00
2022-10-28T22:15:19.273Z,98730.00
2022-10-28T22:20:56.261Z,98721.00
2022-10-28T22:26:38.903Z,98719.00
2022-10-28T22:32:02.895Z,98724.00
2022-10-28T22:37:28.229Z,98723.00
2022-10-28T22:42:56.057Z,98722.00
2022-10-28T22:48:02.337Z,98719.00
2022-10-28T22:58:57.717Z,98732.00
2022-10-28T23:04:24.562Z,98727.00
2022-10-28T23:09:40.381Z,98732.00
2022-10-28T23:14:43.082Z,98738.00
2022-10-28T23:19:45.856Z,98729.00
2022-10-28T23:24:48.563Z,98740.00
2022-10-28T23:29:51.315Z,98738.00
2022-10-28T23:34:54.021Z,98738.00
2022-10-28T23:39:56.860Z,98743.00
2022-10-28T23:44:59.707Z,98745.00
2022-10-28T23:50:02.612Z,98740.00
2022-10-28T23:55:06.448Z,98740.00
